Time;durP1;ratioP1;P1;durP2;ratioP2;P2;SDS_P1;SDS_P2;PMS_P1;PMS_P2;Temp;Humidity;BMP_temperature;BMP_pressure;BME280_temperature;BME280_humidity;BME280_pressure;Samples;Min_cycle;Max_cycle;Signal;HPM_P1;HPM_P2
2022/07/20 00:00:56;;;;;;;;;;;;;;;20.16;44.61;100201.94;3158394;28;19924;-67
2022/07/20 00:02:28;;;;;;;;;;;;;;;20.17;44.76;100205.44;3158248;28;19936;-67
2022/07/20 00:03:59;;;;;;;;;;;;;;;20.19;44.51;100209.63;3159026;28;20338;-67
2022/07/20 00:05:30;;;;;;;;;;;;;;;20.20;44.49;100199.91;3158151;28;20300;-66
2022/07/20 00:07:02;;;;;;;;;;;;;;;20.21;44.40;100207.72;3157873;28;19924;-66
2022/07/20 00:12:12;;;;;;;;;;;;;;;20.18;44.95;100218.53;3158178;28;19924;-67
2022/07/20 00:13:44;;;;;;;;;;;;;;;20.16;45.03;100222.28;3158015;28;19935;-67
2022/07/20 00:15:15;;;;;;;;;;;;;;;20.16;45.02;100225.75;3163619;28;19931;-67
2022/07/20 00:16:47;;;;;;;;;;;;;;;20.18;45.10;100226.47;3166086;28;19924;-65
2022/07/20 00:18:18;;;;;;;;;;;;;;;20.18;44.71;100229.13;3158319;28;19935;-67
2022/07/20 00:19:49;;;;;;;;;;;;;;;20.21;44.93;100233.34;3159407;28;19924;-67
2022/07/20 00:21:21;;;;;;;;;;;;;;;20.24;44.76;100233.09;3160318;28;19932;-67
2022/07/20 00:22:53;;;;;;;;;;;;;;;20.27;44.91;100230.19;3160455;28;19927;-67
2022/07/20 00:24:25;;;;;;;;;;;;;;;20.29;44.88;100230.06;3160346;28;19924;-67
2022/07/20 00:25:55;;;;;;;;;;;;;;;20.32;45.09;100235.13;3160352;28;20019;-67
2022/07/20 00:27:28;;;;;;;;;;;;;;;20.34;45.21;100230.56;3160573;28;19924;-65
2022/07/20 00:29:00;;;;;;;;;;;;;;;20.32;45.20;100235.13;3160269;28;19931;-66
2022/07/20 00:30:31;;;;;;;;;;;;;;;20.30;45.43;100237.91;3160143;28;19924;-65
2022/07/20 00:32:03;;;;;;;;;;;;;;;20.26;45.66;100232.94;3160487;28;19924;-65
2022/07/20 00:33:34;;;;;;;;;;;;;;;20.26;45.58;100235.59;3160369;28;20286;-66
2022/07/20 00:35:07;;;;;;;;;;;;;;;20.22;45.99;100235.84;3160303;28;20309;-66
2022/07/20 00:36:38;;;;;;;;;;;;;;;20.19;46.03;100233.44;3160290;28;20345;-67
2022/07/20 00:38:10;;;;;;;;;;;;;;;20.16;46.05;100241.63;3160384;28;19931;-67
2022/07/20 00:39:41;;;;;;;;;;;;;;;20.12;46.24;100237.53;3160323;28;19951;-67
2022/07/20 00:41:13;;;;;;;;;;;;;;;20.08;46.44;100238.72;3160007;28;20265;-67
2022/07/20 00:42:46;;;;;;;;;;;;;;;20.07;46.23;100239.69;3160053;28;19924;-67
2022/07/20 00:44:18;;;;;;;;;;;;;;;20.08;46.22;100238.72;3160456;28;19935;-67
2022/07/20 00:45:49;;;;;;;;;;;;;;;20.11;45.90;100246.41;3160093;28;19931;-66
2022/07/20 00:47:21;;;;;;;;;;;;;;;20.14;46.11;100242.69;3160091;28;19931;-67
2022/07/20 00:48:52;;;;;;;;;;;;;;;20.16;45.97;100241.63;3160192;28;20373;-67
2022/07/20 00:50:24;;;;;;;;;;;;;;;20.15;46.27;100245.22;3160134;28;19924;-67
2022/07/20 00:51:56;;;;;;;;;;;;;;;20.12;46.27;100234.91;3160100;28;20336;-67
2022/07/20 00:53:28;;;;;;;;;;;;;;;20.13;46.12;100236.56;3160001;28;20014;-67
2022/07/20 00:54:59;;;;;;;;;;;;;;;20.13;45.93;100235.72;3160067;28;19928;-67
2022/07/20 00:56:31;;;;;;;;;;;;;;;20.15;45.88;100234.66;3159906;28;19924;-65
2022/07/20 00:58:04;;;;;;;;;;;;;;;20.17;45.75;100230.09;3159821;28;19924;-64
2022/07/20 00:59:35;;;;;;;;;;;;;;;20.21;45.72;100228.88;3163868;28;19931;-67
2022/07/20 01:01:07;;;;;;;;;;;;;;;20.20;46.03;100235.16;3160047;28;19931;-67
2022/07/20 01:02:39;;;;;;;;;;;;;;;20.20;46.45;100231.63;3159698;28;19928;-67
2022/07/20 01:04:10;;;;;;;;;;;;;;;20.17;46.47;100232.75;3160007;28;19924;-67
2022/07/20 01:05:42;;;;;;;;;;;;;;;20.16;46.45;100230.19;3159979;28;19928;-64
2022/07/20 01:07:14;;;;;;;;;;;;;;;20.16;46.23;100227.56;3159914;28;20370;-67
2022/07/20 01:08:48;;;;;;;;;;;;;;;20.20;45.90;100224.56;3159785;28;20333;-67
2022/07/20 01:10:20;;;;;;;;;;;;;;;20.21;46.18;100226.25;3159924;28;19958;-67
2022/07/20 01:11:51;;;;;;;;;;;;;;;20.23;46.21;100224.31;3159658;28;19971;-66
2022/07/20 01:13:24;;;;;;;;;;;;;;;20.20;46.28;100221.91;3160014;28;19993;-67
2022/07/20 01:14:56;;;;;;;;;;;;;;;20.25;46.14;100226.84;3162420;28;19924;-67
2022/07/20 01:16:27;;;;;;;;;;;;;;;20.23;46.44;100220.81;3170616;28;19924;-67
2022/07/20 01:17:59;;;;;;;;;;;;;;;20.22;46.48;100224.44;3159920;28;19924;-67
2022/07/20 01:19:30;;;;;;;;;;;;;;;20.19;46.45;100227.31;3159868;28;19984;-67
2022/07/20 01:21:03;;;;;;;;;;;;;;;20.18;46.68;100223.00;3159846;28;19939;-67
2022/07/20 01:22:35;;;;;;;;;;;;;;;20.09;46.98;100216.63;3159650;28;19930;-64
2022/07/20 01:24:06;;;;;;;;;;;;;;;20.09;46.72;100218.44;3159716;28;19978;-64
2022/07/20 01:25:38;;;;;;;;;;;;;;;20.11;46.95;100221.78;3159691;28;19928;-65
2022/07/20 01:27:10;;;;;;;;;;;;;;;20.10;46.97;100225.41;3159472;28;20401;-65
2022/07/20 01:28:42;;;;;;;;;;;;;;;20.06;47.21;100218.69;3159678;28;19993;-67
2022/07/20 01:30:13;;;;;;;;;;;;;;;20.02;47.48;100212.75;3159945;28;20333;-65
2022/07/20 01:31:45;;;;;;;;;;;;;;;19.99;47.55;100220.94;3158763;28;19931;-67
2022/07/20 01:33:17;;;;;;;;;;;;;;;19.96;47.70;100222.00;3159715;28;19989;-65
2022/07/20 01:34:48;;;;;;;;;;;;;;;19.91;47.95;100213.63;3159420;28;20388;-65
2022/07/20 01:36:21;;;;;;;;;;;;;;;19.83;48.40;100213.34;3159579;28;20306;-65
2022/07/20 01:37:53;;;;;;;;;;;;;;;19.75;48.75;100219.22;3159575;28;19989;-65
2022/07/20 01:39:24;;;;;;;;;;;;;;;19.73;48.64;100215.88;3159359;28;19925;-65
2022/07/20 01:40:55;;;;;;;;;;;;;;;19.72;48.46;100213.34;3159567;28;19924;-65
2022/07/20 01:42:26;;;;;;;;;;;;;;;19.74;48.71;100209.63;3159637;28;19925;-65
2022/07/20 01:43:58;;;;;;;;;;;;;;;19.76;48.39;100213.00;3159313;28;19928;-65
2022/07/20 01:45:30;;;;;;;;;;;;;;;19.78;48.46;100221.63;3159418;28;19955;-65
2022/07/20 01:47:01;;;;;;;;;;;;;;;19.77;48.65;100212.03;3159613;28;20266;-65
2022/07/20 01:48:33;;;;;;;;;;;;;;;19.79;48.36;100209.28;3158995;28;19924;-65
2022/07/20 01:50:05;;;;;;;;;;;;;;;19.81;48.51;100219.72;3159481;28;19967;-65
2022/07/20 01:51:38;;;;;;;;;;;;;;;19.80;48.54;100215.41;3158751;28;19928;-65
2022/07/20 01:53:10;;;;;;;;;;;;;;;19.80;48.48;100218.88;3159420;28;19925;-65
2022/07/20 01:54:41;;;;;;;;;;;;;;;19.78;48.69;100216.34;3159199;28;20399;-65
2022/07/20 01:56:13;;;;;;;;;;;;;;;19.73;48.75;100217.69;3165781;28;19924;-66
2022/07/20 01:57:43;;;;;;;;;;;;;;;19.71;49.05;100219.59;3159227;28;19931;-65
2022/07/20 01:59:15;;;;;;;;;;;;;;;19.68;48.91;100218.03;3159331;28;19924;-65
2022/07/20 02:00:46;;;;;;;;;;;;;;;19.65;49.18;100215.63;3159186;28;19924;-65
2022/07/20 02:02:17;;;;;;;;;;;;;;;19.60;49.30;100223.00;3158652;28;19932;-65
2022/07/20 02:03:48;;;;;;;;;;;;;;;19.60;49.06;100214.25;3158041;28;20389;-64
2022/07/20 02:05:19;;;;;;;;;;;;;;;19.59;49.16;100215.22;3159071;28;19947;-65
2022/07/20 02:06:52;;;;;;;;;;;;;;;19.60;48.98;100215.09;3159226;28;19940;-64
2022/07/20 02:08:25;;;;;;;;;;;;;;;19.62;49.05;100220.28;3159024;28;19928;-64
2022/07/20 02:09:56;;;;;;;;;;;;;;;19.61;49.51;100218.56;3159392;28;19924;-65
2022/07/20 02:11:28;;;;;;;;;;;;;;;19.57;49.16;100219.78;3159024;28;20302;-65
2022/07/20 02:13:00;;;;;;;;;;;;;;;19.57;49.46;100215.31;3158779;28;20325;-65
2022/07/20 02:14:32;;;;;;;;;;;;;;;19.58;49.11;100218.81;3158982;28;20316;-67
2022/07/20 02:16:15;;;;;;;;;;;;;;;19.62;48.76;100209.69;3171635;28;19928;-65
2022/07/20 02:17:47;;;;;;;;;;;;;;;19.62;48.88;100217.63;3146654;28;19928;-65
2022/07/20 02:19:18;;;;;;;;;;;;;;;19.59;49.02;100216.06;3157877;28;19928;-64
2022/07/20 02:20:49;;;;;;;;;;;;;;;19.57;49.35;100212.69;3159023;28;19928;-67
2022/07/20 02:22:22;;;;;;;;;;;;;;;19.55;49.10;100214.59;3159129;28;19931;-66
2022/07/20 02:23:53;;;;;;;;;;;;;;;19.55;49.06;100223.38;3158908;28;19928;-66
2022/07/20 02:25:25;;;;;;;;;;;;;;;19.54;49.26;100216.41;3158809;28;19935;-67
2022/07/20 02:26:56;;;;;;;;;;;;;;;19.52;49.38;100214.81;3158913;28;19931;-67
2022/07/20 02:28:28;;;;;;;;;;;;;;;19.51;49.33;100216.63;3158991;28;20332;-66
2022/07/20 02:30:00;;;;;;;;;;;;;;;19.50;49.29;100214.13;3158977;28;19924;-66
2022/07/20 02:31:31;;;;;;;;;;;;;;;19.47;49.24;100214.34;3158962;28;19940;-66
2022/07/20 02:33:03;;;;;;;;;;;;;;;19.40;49.50;100210.47;3158759;28;19977;-67
2022/07/20 02:34:34;;;;;;;;;;;;;;;19.36;49.68;100207.22;3158917;28;19954;-67
2022/07/20 02:36:05;;;;;;;;;;;;;;;19.30;49.80;100208.53;3158924;28;19931;-67
2022/07/20 02:37:38;;;;;;;;;;;;;;;19.25;50.05;100208.03;3158612;28;19924;-65
2022/07/20 02:39:10;;;;;;;;;;;;;;;19.22;50.06;100210.88;3158892;28;19932;-66
2022/07/20 02:40:41;;;;;;;;;;;;;;;19.21;49.98;100211.03;3158837;28;19924;-66
2022/07/20 02:42:13;;;;;;;;;;;;;;;19.19;49.98;100203.19;3158525;28;19928;-67
2022/07/20 02:43:44;;;;;;;;;;;;;;;19.18;50.03;100198.06;3146409;28;19947;-67
2022/07/20 02:45:15;;;;;;;;;;;;;;;19.13;50.06;100194.91;3158862;28;19924;-67
2022/07/20 02:46:47;;;;;;;;;;;;;;;19.10;50.23;100210.00;3158602;28;19924;-67
2022/07/20 02:48:17;;;;;;;;;;;;;;;19.07;50.37;100215.50;3158212;28;19928;-67
2022/07/20 02:49:49;;;;;;;;;;;;;;;19.07;50.23;100210.22;3158550;28;19953;-66
2022/07/20 02:51:20;;;;;;;;;;;;;;;19.06;50.23;100213.84;3159416;28;19924;-67
2022/07/20 02:52:52;;;;;;;;;;;;;;;19.06;50.37;100218.28;3167417;28;19924;-64
2022/07/20 02:54:24;;;;;;;;;;;;;;;19.06;50.20;100218.28;3158367;28;20297;-65
2022/07/20 02:55:55;;;;;;;;;;;;;;;19.05;50.20;100212.16;3158623;28;20011;-65
2022/07/20 02:57:27;;;;;;;;;;;;;;;19.09;49.96;100212.78;3158707;28;19993;-65
2022/07/20 02:58:59;;;;;;;;;;;;;;;19.07;50.20;100207.59;3158731;28;19928;-65
2022/07/20 03:00:30;;;;;;;;;;;;;;;19.08;49.99;100213.75;3158715;28;20002;-65
2022/07/20 03:02:01;;;;;;;;;;;;;;;19.07;50.19;100215.50;3158543;28;19924;-65
2022/07/20 03:03:32;;;;;;;;;;;;;;;19.08;50.09;100216.38;3158287;28;20011;-65
2022/07/20 03:05:04;;;;;;;;;;;;;;;19.09;49.91;100218.88;3158439;28;19985;-65
2022/07/20 03:06:36;;;;;;;;;;;;;;;19.10;50.17;100214.44;3158322;28;19928;-65
2022/07/20 03:08:09;;;;;;;;;;;;;;;19.12;49.91;100214.34;3158766;28;19980;-65
2022/07/20 03:09:40;;;;;;;;;;;;;;;19.09;49.98;100221.53;3158545;28;19924;-65
2022/07/20 03:11:12;;;;;;;;;;;;;;;19.12;50.00;100217.00;3158334;28;19931;-65
2022/07/20 03:12:42;;;;;;;;;;;;;;;19.13;49.79;100213.38;3158538;28;19939;-65
2022/07/20 03:14:14;;;;;;;;;;;;;;;19.13;49.69;100216.84;3158448;28;19924;-65
2022/07/20 03:15:46;;;;;;;;;;;;;;;19.13;49.66;100221.31;3168159;28;19931;-66
2022/07/20 03:17:17;;;;;;;;;;;;;;;19.16;49.49;100214.00;3162121;28;20056;-66
2022/07/20 03:18:49;;;;;;;;;;;;;;;19.16;49.81;100213.16;3158129;28;19979;-66
2022/07/20 03:20:20;;;;;;;;;;;;;;;19.17;49.58;100214.84;3158623;28;19931;-66
2022/07/20 03:21:52;;;;;;;;;;;;;;;19.15;49.40;100212.31;3158426;28;20397;-66
2022/07/20 03:23:25;;;;;;;;;;;;;;;19.15;49.71;100204.41;3158299;28;20338;-65
2022/07/20 03:24:55;;;;;;;;;;;;;;;19.17;49.48;100215.69;3158575;28;19928;-66
2022/07/20 03:26:27;;;;;;;;;;;;;;;19.19;49.27;100219.03;3158242;28;20023;-65
2022/07/20 03:27:59;;;;;;;;;;;;;;;19.22;49.27;100215.34;3158205;28;20016;-66
2022/07/20 03:29:29;;;;;;;;;;;;;;;19.22;49.37;100212.69;3158381;28;19978;-66
2022/07/20 03:31:01;;;;;;;;;;;;;;;19.23;49.00;100206.47;3158489;28;20014;-66
2022/07/20 03:32:33;;;;;;;;;;;;;;;19.26;49.33;100209.72;3158205;28;19925;-66
2022/07/20 03:34:04;;;;;;;;;;;;;;;19.28;48.96;100215.72;3158289;28;20065;-66
2022/07/20 03:35:36;;;;;;;;;;;;;;;19.30;49.41;100210.31;3158141;28;19924;-66
2022/07/20 03:37:07;;;;;;;;;;;;;;;19.26;49.56;100212.38;3158451;28;20332;-66
2022/07/20 03:38:40;;;;;;;;;;;;;;;19.28;49.23;100213.06;3158285;28;19928;-66
2022/07/20 03:40:12;;;;;;;;;;;;;;;19.32;49.08;100219.00;3158000;28;20086;-66
2022/07/20 03:41:44;;;;;;;;;;;;;;;19.34;49.08;100211.78;3158367;28;19933;-66
2022/07/20 03:43:15;;;;;;;;;;;;;;;19.36;49.16;100216.94;3158416;28;19925;-65
2022/07/20 03:44:47;;;;;;;;;;;;;;;19.37;49.03;100215.97;3156504;28;20301;-66
2022/07/20 03:46:18;;;;;;;;;;;;;;;19.38;49.01;100215.06;3158303;28;20421;-66
2022/07/20 03:47:50;;;;;;;;;;;;;;;19.34;49.45;100211.78;3160905;28;20290;-66
2022/07/20 03:49:20;;;;;;;;;;;;;;;19.33;49.46;100218.03;3168139;28;21237;-65
2022/07/20 03:50:52;;;;;;;;;;;;;;;19.34;49.06;100214.41;3158164;28;19996;-65
2022/07/20 03:52:22;;;;;;;;;;;;;;;19.34;49.25;100222.34;3158168;28;19932;-66
2022/07/20 03:53:55;;;;;;;;;;;;;;;19.31;49.57;100218.16;3158228;28;20298;-66
2022/07/20 03:55:27;;;;;;;;;;;;;;;19.28;49.63;100221.00;3160614;28;19924;-65
2022/07/20 03:56:59;;;;;;;;;;;;;;;19.29;49.52;100217.41;3160301;28;19935;-65
2022/07/20 03:58:30;;;;;;;;;;;;;;;19.20;49.69;100202.25;3160872;28;19931;-66
2022/07/20 04:00:02;;;;;;;;;;;;;;;19.28;49.51;100215.72;3160853;28;19924;-65
2022/07/20 04:01:33;;;;;;;;;;;;;;;19.30;49.38;100215.59;3160683;28;19981;-65
2022/07/20 04:03:05;;;;;;;;;;;;;;;19.33;49.28;100231.22;3159820;28;19924;-66
2022/07/20 04:04:35;;;;;;;;;;;;;;;19.33;49.59;100236.50;3160519;28;20008;-66
2022/07/20 04:06:07;;;;;;;;;;;;;;;19.35;49.48;100233.75;3160904;28;19924;-66
2022/07/20 04:07:39;;;;;;;;;;;;;;;19.33;49.51;100226.78;3160600;28;19928;-65
2022/07/20 04:09:12;;;;;;;;;;;;;;;19.33;49.51;100224.13;3160324;28;19928;-66
2022/07/20 04:10:43;;;;;;;;;;;;;;;19.30;49.71;100232.28;3160650;28;20548;-65
2022/07/20 04:12:14;;;;;;;;;;;;;;;19.30;49.71;100234.94;3160379;28;20034;-66
2022/07/20 04:13:46;;;;;;;;;;;;;;;19.31;49.60;100233.13;3160423;28;20302;-66
2022/07/20 04:15:17;;;;;;;;;;;;;;;19.33;49.87;100241.78;3166195;28;19928;-66
2022/07/20 04:16:49;;;;;;;;;;;;;;;19.35;49.73;100234.59;3168233;28;20294;-65
2022/07/20 04:18:21;;;;;;;;;;;;;;;19.33;49.71;100237.34;3160355;28;20340;-65
2022/07/20 04:19:52;;;;;;;;;;;;;;;19.32;49.99;100232.19;3160483;28;20428;-66
2022/07/20 04:21:24;;;;;;;;;;;;;;;19.28;49.92;100236.84;3160298;28;20336;-66
2022/07/20 04:22:55;;;;;;;;;;;;;;;19.29;49.89;100238.53;3160850;28;20001;-66
2022/07/20 04:24:27;;;;;;;;;;;;;;;19.31;50.05;100244.56;3160299;28;19924;-65
2022/07/20 04:25:59;;;;;;;;;;;;;;;19.33;49.84;100250.53;3160273;28;20416;-66
2022/07/20 04:27:30;;;;;;;;;;;;;;;19.33;49.88;100245.25;3160301;28;19924;-67
2022/07/20 04:29:02;;;;;;;;;;;;;;;19.30;50.04;100232.28;3160442;28;19931;-65
2022/07/20 04:30:35;;;;;;;;;;;;;;;19.27;50.34;100227.25;3160249;28;20324;-65
2022/07/20 04:32:07;;;;;;;;;;;;;;;19.23;50.52;100231.06;3160355;28;19928;-65
2022/07/20 04:33:38;;;;;;;;;;;;;;;19.24;50.52;100229.28;3160334;28;19946;-65
2022/07/20 04:35:10;;;;;;;;;;;;;;;19.27;50.20;100239.59;3160395;28;19924;-65
2022/07/20 04:36:41;;;;;;;;;;;;;;;19.30;49.96;100240.22;3160108;28;19932;-65
2022/07/20 04:38:13;;;;;;;;;;;;;;;19.35;50.14;100244.34;3160052;28;19928;-65
2022/07/20 04:39:46;;;;;;;;;;;;;;;19.35;50.20;100245.16;3160271;28;20317;-65
2022/07/20 04:41:18;;;;;;;;;;;;;;;19.39;50.24;100245.78;3159717;28;19935;-65
2022/07/20 04:42:49;;;;;;;;;;;;;;;19.40;50.12;100227.16;3160236;28;19924;-65
2022/07/20 04:44:21;;;;;;;;;;;;;;;19.45;50.23;100234.75;3161437;28;19932;-65
2022/07/20 04:45:53;;;;;;;;;;;;;;;19.49;50.22;100238.81;3160252;28;19924;-65
2022/07/20 04:47:25;;;;;;;;;;;;;;;19.52;50.08;100242.09;3160179;28;20010;-65
2022/07/20 04:48:56;;;;;;;;;;;;;;;19.57;49.72;100248.81;3160080;28;19924;-65
2022/07/20 04:50:28;;;;;;;;;;;;;;;19.63;49.74;100248.38;3160034;28;19931;-65
2022/07/20 04:52:00;;;;;;;;;;;;;;;19.64;49.76;100248.25;3160069;28;19924;-65
2022/07/20 04:53:31;;;;;;;;;;;;;;;19.65;50.02;100238.56;3160081;28;20007;-65
2022/07/20 04:55:05;;;;;;;;;;;;;;;19.69;49.93;100238.19;3159930;28;19928;-66
2022/07/20 04:56:36;;;;;;;;;;;;;;;19.75;49.74;100232.44;3159979;28;19928;-66
2022/07/20 04:58:08;;;;;;;;;;;;;;;19.78;49.85;100226.91;3159736;28;19928;-66
2022/07/20 04:59:40;;;;;;;;;;;;;;;19.82;49.79;100229.31;3160082;28;19924;-66
2022/07/20 05:01:11;;;;;;;;;;;;;;;19.86;49.62;100228.97;3160030;28;20054;-65
2022/07/20 05:02:43;;;;;;;;;;;;;;;19.92;49.40;100233.78;3159814;28;19931;-66
2022/07/20 05:04:14;;;;;;;;;;;;;;;19.95;49.52;100233.56;3159854;28;19932;-66
2022/07/20 05:05:46;;;;;;;;;;;;;;;20.01;49.16;100234.88;3158660;28;19924;-66
2022/07/20 05:07:17;;;;;;;;;;;;;;;20.07;49.39;100241.50;3159493;28;19932;-65
2022/07/20 05:08:49;;;;;;;;;;;;;;;20.14;49.20;100232.97;3160097;28;19928;-66
2022/07/20 05:10:22;;;;;;;;;;;;;;;20.19;49.11;100236.09;3159743;28;20382;-66
2022/07/20 05:11:53;;;;;;;;;;;;;;;20.26;48.95;100235.59;3159855;28;19928;-66
2022/07/20 05:13:24;;;;;;;;;;;;;;;20.32;48.93;100237.75;3159920;28;19924;-66
2022/07/20 05:14:56;;;;;;;;;;;;;;;20.36;48.70;100233.94;3159955;28;19931;-66
2022/07/20 05:16:27;;;;;;;;;;;;;;;20.41;48.65;100237.91;3159919;28;20596;-66
2022/07/20 05:17:59;;;;;;;;;;;;;;;20.44;48.77;100229.72;3159803;28;20319;-66
2022/07/20 05:19:30;;;;;;;;;;;;;;;20.49;48.66;100228.50;3160008;28;20253;-66
2022/07/20 05:21:02;;;;;;;;;;;;;;;20.52;48.08;100229.13;3159481;28;20408;-66
2022/07/20 05:22:34;;;;;;;;;;;;;;;20.54;48.36;100232.50;3159524;28;19928;-65
2022/07/20 05:24:06;;;;;;;;;;;;;;;20.59;48.19;100240.06;3159819;28;19934;-65
2022/07/20 05:25:39;;;;;;;;;;;;;;;20.64;48.32;100228.13;3159830;28;19932;-66
2022/07/20 05:27:11;;;;;;;;;;;;;;;20.71;48.23;100240.91;3159636;28;20015;-66
2022/07/20 05:28:42;;;;;;;;;;;;;;;20.75;48.04;100237.03;3159692;28;19924;-66
2022/07/20 05:30:14;;;;;;;;;;;;;;;20.81;48.04;100237.38;3159936;28;20007;-66
2022/07/20 05:31:46;;;;;;;;;;;;;;;20.90;48.00;100238.44;3159744;28;20379;-66
2022/07/20 05:33:18;;;;;;;;;;;;;;;20.98;47.65;100228.06;3166312;28;20339;-65
2022/07/20 05:34:49;;;;;;;;;;;;;;;21.06;47.50;100230.06;3163118;28;19924;-66
2022/07/20 05:36:21;;;;;;;;;;;;;;;21.12;47.41;100235.72;3159239;28;20009;-65
2022/07/20 05:37:52;;;;;;;;;;;;;;;21.16;47.20;100230.16;3159830;28;19924;-65
2022/07/20 05:39:24;;;;;;;;;;;;;;;21.27;47.29;100238.91;3159528;28;19932;-66
2022/07/20 05:40:57;;;;;;;;;;;;;;;21.35;47.19;100238.25;3163942;28;19924;-66
2022/07/20 05:42:29;;;;;;;;;;;;;;;21.44;46.79;100237.50;3159574;28;19928;-66
2022/07/20 05:44:00;;;;;;;;;;;;;;;21.50;46.83;100242.31;3159545;28;19977;-66
2022/07/20 05:45:32;;;;;;;;;;;;;;;21.54;46.44;100248.19;3159606;28;19924;-66
2022/07/20 05:47:06;;;;;;;;;;;;;;;21.56;46.38;100247.09;3159600;28;19928;-66
2022/07/20 05:48:38;;;;;;;;;;;;;;;21.62;46.30;100237.78;3159701;28;19955;-65
2022/07/20 05:50:09;;;;;;;;;;;;;;;21.67;46.11;100243.53;3159474;28;20423;-65
2022/07/20 05:51:41;;;;;;;;;;;;;;;21.73;45.92;100242.19;3159423;28;19931;-65
2022/07/20 05:53:13;;;;;;;;;;;;;;;21.81;45.60;100237.91;3159636;28;19924;-65
2022/07/20 05:54:45;;;;;;;;;;;;;;;21.86;45.35;100234.00;3159383;28;20316;-66
2022/07/20 05:56:18;;;;;;;;;;;;;;;21.94;45.33;100244.81;3159191;28;20344;-65
2022/07/20 05:57:49;;;;;;;;;;;;;;;22.01;45.41;100238.03;3149306;28;20329;-65
2022/07/20 05:59:21;;;;;;;;;;;;;;;22.11;45.13;100236.22;3159484;28;19924;-65
2022/07/20 06:00:52;;;;;;;;;;;;;;;22.19;45.04;100238.28;3159537;28;19924;-66
2022/07/20 06:02:24;;;;;;;;;;;;;;;22.25;44.60;100240.38;3158763;28;19928;-66
2022/07/20 06:03:55;;;;;;;;;;;;;;;22.32;44.68;100230.91;3157944;28;19924;-65
2022/07/20 06:05:27;;;;;;;;;;;;;;;22.42;44.45;100230.94;3159492;28;20007;-65
2022/07/20 06:06:59;;;;;;;;;;;;;;;22.52;44.19;100231.81;3159527;28;19935;-65
2022/07/20 06:08:30;;;;;;;;;;;;;;;22.59;43.78;100224.97;3159323;28;19924;-65
2022/07/20 06:10:02;;;;;;;;;;;;;;;22.69;43.83;100228.50;3159422;28;19924;-65
2022/07/20 06:11:35;;;;;;;;;;;;;;;22.77;43.31;100233.13;3159565;28;20404;-66
2022/07/20 06:13:06;;;;;;;;;;;;;;;22.83;42.96;100224.59;3159174;28;19935;-65
2022/07/20 06:14:38;;;;;;;;;;;;;;;22.91;42.99;100231.88;3159391;28;19925;-66
2022/07/20 06:16:09;;;;;;;;;;;;;;;23.02;43.02;100225.66;3171877;28;19924;-66
2022/07/20 06:17:41;;;;;;;;;;;;;;;23.10;42.54;100231.06;3159337;28;20397;-65
2022/07/20 06:19:13;;;;;;;;;;;;;;;23.17;42.23;100230.41;3159150;28;20334;-66
2022/07/20 06:20:44;;;;;;;;;;;;;;;23.27;42.10;100232.22;3159013;28;19929;-66
2022/07/20 06:22:16;;;;;;;;;;;;;;;23.35;42.48;100232.34;3159201;28;20328;-65
2022/07/20 06:23:47;;;;;;;;;;;;;;;23.42;41.67;100240.59;3159259;28;20304;-66
2022/07/20 06:25:19;;;;;;;;;;;;;;;23.49;41.67;100234.56;3158995;28;19947;-65
2022/07/20 06:26:53;;;;;;;;;;;;;;;23.57;41.70;100239.16;3159223;28;20432;-65
2022/07/20 06:28:25;;;;;;;;;;;;;;;23.64;41.48;100229.66;3158906;28;20393;-66
2022/07/20 06:29:56;;;;;;;;;;;;;;;23.77;41.32;100237.34;3159074;28;19924;-65
2022/07/20 06:31:28;;;;;;;;;;;;;;;23.86;41.18;100240.97;3158974;28;19979;-66
2022/07/20 06:32:59;;;;;;;;;;;;;;;23.93;41.14;100242.06;3158714;28;20023;-66
2022/07/20 06:34:31;;;;;;;;;;;;;;;23.98;40.85;100242.47;3159269;28;20412;-65
2022/07/20 06:36:03;;;;;;;;;;;;;;;24.06;40.71;100246.09;3159107;28;20319;-66
2022/07/20 06:37:34;;;;;;;;;;;;;;;24.14;40.76;100242.72;3166127;28;19924;-66
2022/07/20 06:39:06;;;;;;;;;;;;;;;24.21;40.47;100241.13;3159176;28;19928;-65
2022/07/20 06:40:37;;;;;;;;;;;;;;;24.30;40.48;100239.41;3159058;28;19957;-66
2022/07/20 06:42:11;;;;;;;;;;;;;;;24.37;40.21;100247.63;3158999;28;19935;-66
2022/07/20 06:43:42;;;;;;;;;;;;;;;24.47;40.19;100245.81;3158912;28;19924;-66
2022/07/20 06:45:14;;;;;;;;;;;;;;;24.52;39.87;100239.06;3158756;28;19928;-66
2022/07/20 06:46:45;;;;;;;;;;;;;;;24.62;39.71;100230.16;3159284;28;19924;-65
2022/07/20 06:48:17;;;;;;;;;;;;;;;24.71;39.93;100234.59;3158930;28;19924;-66
2022/07/20 06:49:49;;;;;;;;;;;;;;;24.80;39.26;100232.88;3158907;28;19928;-65
2022/07/20 06:51:20;;;;;;;;;;;;;;;24.86;39.06;100230.44;3158835;28;20401;-66
2022/07/20 06:52:52;;;;;;;;;;;;;;;24.90;38.84;100225.63;3158896;28;20569;-66
2022/07/20 06:54:24;;;;;;;;;;;;;;;24.93;39.08;100226.16;3158682;28;19928;-66
2022/07/20 06:55:55;;;;;;;;;;;;;;;25.00;38.56;100231.75;3158567;28;20289;-66
2022/07/20 06:57:29;;;;;;;;;;;;;;;25.03;38.54;100220.78;3158797;28;20321;-65
2022/07/20 06:59:00;;;;;;;;;;;;;;;25.09;38.70;100225.50;3158893;28;19924;-66
2022/07/20 07:00:32;;;;;;;;;;;;;;;25.15;38.42;100222.25;3158716;28;20443;-66
2022/07/20 07:02:04;;;;;;;;;;;;;;;25.24;38.45;100219.66;3158709;28;19928;-65
2022/07/20 07:03:35;;;;;;;;;;;;;;;25.32;38.15;100217.03;3157554;28;19928;-66
2022/07/20 07:05:07;;;;;;;;;;;;;;;25.32;38.15;100217.91;3158719;28;19928;-66
2022/07/20 07:06:39;;;;;;;;;;;;;;;25.35;37.79;100217.59;3158564;28;19947;-66
2022/07/20 07:08:11;;;;;;;;;;;;;;;25.39;37.47;100218.94;3158703;28;19932;-66
2022/07/20 07:09:42;;;;;;;;;;;;;;;25.45;37.24;100222.81;3158649;28;19931;-66
2022/07/20 07:11:14;;;;;;;;;;;;;;;25.52;37.53;100217.69;3158557;28;20385;-66
2022/07/20 07:12:47;;;;;;;;;;;;;;;25.59;37.17;100210.75;3158481;28;19928;-66
2022/07/20 07:14:18;;;;;;;;;;;;;;;25.64;36.75;100211.97;3158154;28;19928;-65
2022/07/20 07:15:50;;;;;;;;;;;;;;;25.69;36.67;100213.31;3158771;28;19932;-65
2022/07/20 07:17:21;;;;;;;;;;;;;;;25.75;37.12;100213.53;3158493;28;20339;-65
2022/07/20 07:18:53;;;;;;;;;;;;;;;25.83;36.85;100216.28;3158344;28;20619;-65
2022/07/20 07:20:25;;;;;;;;;;;;;;;25.92;36.47;100214.50;3158724;28;19973;-65
2022/07/20 07:21:56;;;;;;;;;;;;;;;26.00;36.70;100213.69;3158484;28;19924;-65
2022/07/20 07:23:28;;;;;;;;;;;;;;;26.07;35.86;100207.56;3158662;28;19925;-66
2022/07/20 07:24:59;;;;;;;;;;;;;;;26.16;35.78;100210.28;3158729;28;19928;-65
2022/07/20 07:26:31;;;;;;;;;;;;;;;26.25;35.89;100214.66;3158536;28;20389;-65
2022/07/20 07:28:04;;;;;;;;;;;;;;;26.33;35.87;100206.69;3158535;28;19925;-65
2022/07/20 07:29:36;;;;;;;;;;;;;;;26.38;35.53;100204.34;3157467;28;19935;-65
2022/07/20 07:31:07;;;;;;;;;;;;;;;26.46;35.98;100200.88;3158431;28;19955;-65
2022/07/20 07:32:39;;;;;;;;;;;;;;;26.52;35.73;100203.75;3158505;28;19965;-65
2022/07/20 07:34:10;;;;;;;;;;;;;;;26.58;35.24;100206.78;3158182;28;19977;-65
2022/07/20 07:35:42;;;;;;;;;;;;;;;26.66;35.82;100201.47;3158532;28;19924;-65
2022/07/20 07:37:14;;;;;;;;;;;;;;;26.77;35.53;100195.81;3158511;28;19935;-65
2022/07/20 07:38:45;;;;;;;;;;;;;;;26.88;35.45;100199.97;3158598;28;19924;-65
2022/07/20 07:40:17;;;;;;;;;;;;;;;26.98;35.46;100193.50;3158688;28;19924;-65
2022/07/20 07:41:48;;;;;;;;;;;;;;;27.06;35.06;100189.13;3158458;28;19935;-65
2022/07/20 07:43:21;;;;;;;;;;;;;;;27.10;34.51;100204.69;3158361;28;19931;-65
2022/07/20 07:44:53;;;;;;;;;;;;;;;27.19;34.66;100201.03;3158391;28;19932;-65
2022/07/20 07:46:24;;;;;;;;;;;;;;;27.31;34.49;100198.88;3158179;28;20002;-65
2022/07/20 07:47:56;;;;;;;;;;;;;;;27.43;34.36;100202.03;3158380;28;19924;-65
2022/07/20 07:49:27;;;;;;;;;;;;;;;27.53;34.15;100197.34;3158618;28;19931;-65
2022/07/20 07:50:59;;;;;;;;;;;;;;;27.64;34.07;100198.84;3158281;28;19928;-65
2022/07/20 07:52:30;;;;;;;;;;;;;;;27.75;33.30;100201.16;3158414;28;19924;-66
2022/07/20 07:54:02;;;;;;;;;;;;;;;27.81;33.01;100202.34;3158367;28;19924;-65